Airfield :
LOGIN :

Register | Disclaimer

   EN    FR    IT 

 










Legend :    VFR   Marginal VFR   IFR   Intensive IFR   Very Intensive IFR
Visi :
Ceiling :
>= 8 km
>= 3000ft
5 to 8 km
1000 to 3000 ft
1500m to 5 km
500 to 1000 ft
800 to 1500m
200 to 500 ft
< 800m
< 200 ft
Symbols :   Thunderstorms  Fog  Heavy snow  Heavy precipitations  Wind > 20 kt
SIGMETs :     Misc.  Thunderstorms  Icing  Turbulence  Mountain Waves  Volcanic Ashes







- Airport Elevation : 726 ft
- IATA code : DIJ
- Download approach charts


LFSD - Dijon

CURRENT METAR :
  • 272300Z AUTO 26004KT CAVOK 16/15 Q1017

EXPIRED METARs :
  • 272230Z AUTO 27001KT CAVOK 16/15 Q1018
  • 272200Z AUTO 13004KT 090V170 CAVOK 16/15 Q1018
  • 272130Z AUTO 03005KT 9999 ///TCU 17/15 Q1018
  • 272100Z AUTO 36005KT 9999 -RA ///TCU 17/15 Q1018
  • 272030Z AUTO 32006KT 280V350 9999 -RA ///CB 18/15 Q1018

Expired Forecast.
No reported NOTAMs for that airfield.
1 SIGMET reported for the Reims FIR (LFEE) :
 
Embedded thunderstorms
LFEE SIGMET 7 VALID 272300/280200 LFPW
LFEE REIMS FIR/UIR EMBD TS OBS WI N4800 E00745 - N4730 E00730 - N4700 E00700 - N4800 E00500 - N4830 E00530 - N4900 E00445 - N4930 E00600 - N4930 E00615 - N4800 E00745 TOP FL380 STNR WKN=



MET'MAP, your aeronautical weather chart ! - Copyright ORBIFLY December 2007 - Disclaimer

ORBIFLY MET'MAP TEAM :

Programming & Development : Alexandra Zaïnal
Concept & Development : Baudouin d'Aumeries
Co-Development & Prog : Marc-Olivier Méhu
Technical & hardware support : Manuel Goepfert

Contact : metmap@orbifly.com




SOURCES & CREDITS :

   NOAA